Lucernemines, Pennsylvania
Current Conditions -  °F | °C
As of 12:15 PM on Wednesday 26 Nov 2014 (Local Time) from KIDI Reporting Station
Moderate Fog Moderate Fog  
Wind Chill: 32°   Ceiling: 400
Heat Index: 32°   Visibility: 0.5mi
Dew Point: 32°   Wind: 3mph
Humidity: 100%   Direction: 60°ENE
Pressure: 30.05"   Gusts: NA
Location:  40.56°N, 79.13°W
Report Text: KIDI 261715Z AUTO 06003KT 1/2SM FG OVC004 00/M00 A3005 RMK A01
Loading
Personal Weather Stations






























Interactive Weather Map New forecast layout! Learn more

10-Day Weather Forecast

Advertisements
Track Severe Weather on mobile